Grand Mesa, Colorado
Current Conditions -  °F | °C
As of 6:35 AM on Saturday 20 Dec 2014 (Local Time) from KAJZ Reporting Station
Overcast Overcast  
Wind Chill: 22°   Ceiling: 7000
Heat Index: 27°   Visibility: 10mi
Dew Point: 22°   Wind: 5mph
Humidity: 81%   Direction: 20°NNE
Pressure: 30.22"   Gusts: NA
Location:  38.9793°N, 107.894°W
Report Text: KAJZ 201335Z AUTO 02004KT 10SM OVC070 M03/M05 A3022 RMK AO2 T10271055
Loading
Personal Weather Stations






























Interactive Weather Map New forecast layout! Learn more

10-Day Weather Forecast

Advertisements
Track Severe Weather on mobile